Time;durP1;ratioP1;P1;durP2;ratioP2;P2;SDS_P1;SDS_P2;PMS_P1;PMS_P2;Temp;Humidity;BMP_temperature;BMP_pressure;BME280_temperature;BME280_humidity;BME280_pressure;Samples;Min_cycle;Max_cycle;Signal;HPM_P1;HPM_P2
2021/01/28 00:01:19;;;;;;;24.23;15.15;;;;;;;0.90;88.89;96231.94;5024809;28;20034;-73
2021/01/28 00:03:45;;;;;;;24.73;15.57;;;;;;;0.94;88.74;96233.22;5024008;28;20054;-73
2021/01/28 00:06:12;;;;;;;25.77;16.15;;;;;;;0.94;88.79;96232.41;5020822;28;20478;-74
2021/01/28 00:08:39;;;;;;;24.88;15.18;;;;;;;0.92;88.86;96226.59;5023433;28;20052;-74
2021/01/28 00:11:07;;;;;;;24.67;15.15;;;;;;;0.92;88.95;96227.41;5023105;28;20053;-73
2021/01/28 00:13:33;;;;;;;21.48;14.70;;;;;;;0.89;89.03;96219.19;5025478;28;20050;-73
2021/01/28 00:15:59;;;;;;;22.52;14.60;;;;;;;0.91;89.12;96233.56;5023515;28;20038;-74
2021/01/28 00:18:25;;;;;;;23.42;14.73;;;;;;;0.92;89.07;96222.25;5021918;28;20046;-73
2021/01/28 00:20:52;;;;;;;23.38;14.05;;;;;;;0.94;89.05;96220.31;5026088;28;20050;-73
2021/01/28 00:23:18;;;;;;;24.90;14.13;;;;;;;0.97;89.03;96235.50;5022686;28;20052;-73
2021/01/28 00:25:46;;;;;;;25.33;13.98;;;;;;;0.99;89.06;96230.16;5022382;28;20058;-73
2021/01/28 00:28:15;;;;;;;22.50;12.98;;;;;;;0.99;88.95;96225.81;5018221;28;20490;-73
2021/01/28 00:30:45;;;;;;;21.92;12.57;;;;;;;0.99;89.11;96227.59;5021731;28;20034;-73
2021/01/28 00:33:15;;;;;;;20.92;13.57;;;;;;;1.01;89.16;96233.41;5021931;28;20487;-73
2021/01/28 00:35:45;;;;;;;29.20;15.38;;;;;;;1.03;89.15;96231.47;5018425;28;20037;-74
2021/01/28 00:38:21;;;;;;;19.77;12.48;;;;;;;1.02;89.08;96230.63;5022496;28;20041;-73
2021/01/28 00:40:48;;;;;;;20.38;12.80;;;;;;;1.04;88.91;96225.31;5022849;28;20054;-74
2021/01/28 00:43:14;;;;;;;21.55;13.75;;;;;;;1.07;89.06;96216.44;5023225;28;20038;-74
2021/01/28 00:45:40;;;;;;;22.42;13.05;;;;;;;1.10;88.89;96206.59;5021262;28;20038;-74
2021/01/28 00:48:07;;;;;;;20.98;13.30;;;;;;;1.11;88.75;96202.22;5023583;28;20045;-74
2021/01/28 00:50:35;;;;;;;22.15;13.88;;;;;;;1.11;88.97;96203.00;5020325;28;20052;-74
2021/01/28 00:53:02;;;;;;;23.40;13.57;;;;;;;1.09;88.91;96210.16;5021146;28;20383;-74
2021/01/28 00:55:28;;;;;;;20.27;12.85;;;;;;;1.07;88.94;96208.69;5026110;28;20030;-74
2021/01/28 00:57:55;;;;;;;19.48;12.63;;;;;;;1.02;89.03;96199.66;5029252;28;20057;-74
2021/01/28 01:00:28;;;;;;;20.15;12.95;;;;;;;1.03;89.08;96195.31;5020980;28;20410;-74
2021/01/28 01:02:54;;;;;;;18.88;12.70;;;;;;;1.05;89.13;96188.19;5018288;28;20475;-73
2021/01/28 01:05:22;;;;;;;19.95;12.55;;;;;;;1.07;89.10;96182.84;5028835;28;20046;-74
2021/01/28 01:07:51;;;;;;;19.63;12.32;;;;;;;1.06;89.37;96173.50;5023560;28;20044;-74
2021/01/28 01:10:44;;;;;;;19.30;11.50;;;;;;;1.06;89.44;96176.09;5015174;28;20050;-74
2021/01/28 01:13:16;;;;;;;23.42;12.43;;;;;;;1.03;89.34;96179.81;5024456;28;20034;-74
2021/01/28 01:15:42;;;;;;;20.90;12.90;;;;;;;1.01;89.47;96185.13;5028110;28;20426;-74
2021/01/28 01:18:10;;;;;;;21.10;11.48;;;;;;;1.00;89.47;96185.28;5026344;28;20045;-74
2021/01/28 01:20:37;;;;;;;19.63;11.73;;;;;;;0.99;89.55;96184.50;5030710;28;20493;-74
2021/01/28 01:23:04;;;;;;;16.83;11.15;;;;;;;0.99;89.53;96187.06;5027112;28;20510;-74
2021/01/28 01:25:30;;;;;;;20.65;12.68;;;;;;;1.00;89.60;96177.56;5019325;28;20064;-74
2021/01/28 01:27:56;;;;;;;19.63;10.95;;;;;;;0.99;89.60;96184.50;5024412;28;20061;-74
2021/01/28 01:30:23;;;;;;;20.65;11.55;;;;;;;0.99;89.68;96184.50;5031606;28;20079;-75
2021/01/28 01:32:50;;;;;;;19.08;11.57;;;;;;;0.98;89.83;96177.69;5024720;28;20486;-74
2021/01/28 01:35:19;;;;;;;15.20;10.00;;;;;;;1.01;89.68;96176.59;5025997;28;20041;-72
2021/01/28 01:37:46;;;;;;;16.52;10.82;;;;;;;1.04;89.67;96175.44;5028192;28;20391;-75
2021/01/28 01:40:16;;;;;;;16.33;10.55;;;;;;;1.07;89.70;96186.25;5024056;28;20041;-75
2021/01/28 01:42:49;;;;;;;15.70;10.32;;;;;;;1.06;89.82;96181.25;5020837;28;20053;-74
2021/01/28 01:45:37;;;;;;;16.95;10.45;;;;;;;1.06;89.88;96173.50;5024008;28;20061;-74
2021/01/28 01:48:09;;;;;;;14.68;9.77;;;;;;;1.07;89.79;96178.53;5017269;28;20053;-74
2021/01/28 01:50:44;;;;;;;18.77;11.13;;;;;;;1.09;89.86;96168.00;5013674;28;20050;-74
2021/01/28 01:53:20;;;;;;;16.35;9.70;;;;;;;1.10;89.76;96162.69;5022627;28;20033;-74
2021/01/28 01:55:55;;;;;;;18.58;10.48;;;;;;;1.11;89.90;96155.72;5022458;28;20482;-74
2021/01/28 01:59:07;;;;;;;16.63;9.85;;;;;;;1.12;89.93;96154.78;5025056;28;20500;-74
2021/01/28 02:01:38;;;;;;;16.33;10.65;;;;;;;1.11;89.96;96146.19;5031957;28;20037;-75
2021/01/28 02:04:06;;;;;;;19.48;11.43;;;;;;;1.13;89.71;96140.88;5019421;28;20042;-74
2021/01/28 02:06:43;;;;;;;18.33;11.10;;;;;;;1.12;90.02;96132.34;5024798;28;20398;-74
2021/01/28 02:09:10;;;;;;;19.38;11.15;;;;;;;1.09;89.86;96117.19;5029214;28;20038;-74
2021/01/28 02:11:39;;;;;;;19.88;11.07;;;;;;;1.09;89.92;96116.34;5023359;28;20045;-74
2021/01/28 02:14:08;;;;;;;17.85;11.07;;;;;;;1.10;89.89;96112.81;5020858;28;20041;-74
2021/01/28 02:16:40;;;;;;;18.92;11.50;;;;;;;1.12;89.80;96108.28;5025160;28;20045;-74
2021/01/28 02:19:18;;;;;;;18.75;10.82;;;;;;;1.14;89.90;96112.31;5024940;28;20053;-74
2021/01/28 02:21:45;;;;;;;18.23;10.77;;;;;;;1.16;89.93;96109.56;5027175;28;20045;-74
2021/01/28 02:24:29;;;;;;;21.08;11.68;;;;;;;1.16;90.07;96101.81;5022530;28;20060;-74
2021/01/28 02:26:56;;;;;;;18.77;11.52;;;;;;;1.12;90.18;96096.19;5021797;28;20057;-74
2021/01/28 02:29:23;;;;;;;16.83;10.52;;;;;;;1.12;90.08;96098.75;5025943;28;20052;-74
2021/01/28 02:31:54;;;;;;;17.88;10.98;;;;;;;1.13;89.99;96096.97;5023785;28;20037;-74
2021/01/28 02:34:22;;;;;;;19.10;11.57;;;;;;;1.12;90.09;96093.59;5020486;28;20400;-73
2021/01/28 02:36:51;;;;;;;17.13;11.40;;;;;;;1.11;90.26;96088.59;5020981;28;20053;-74
2021/01/28 02:39:21;;;;;;;17.23;10.45;;;;;;;1.13;90.24;96089.22;5020781;28;20541;-71
2021/01/28 02:41:56;;;;;;;18.95;11.68;;;;;;;1.12;90.22;96072.94;5024168;28;20052;-71
2021/01/28 02:44:23;;;;;;;18.80;11.30;;;;;;;1.12;90.11;96072.94;5019707;28;20509;-72
2021/01/28 02:46:53;;;;;;;18.95;11.18;;;;;;;1.15;90.25;96074.38;5020302;28;20044;-72
2021/01/28 02:49:50;;;;;;;19.80;11.45;;;;;;;1.16;90.10;96073.41;5005150;28;20474;-72
2021/01/28 02:52:17;;;;;;;18.83;10.85;;;;;;;1.17;90.23;96072.44;5023321;28;20104;-72
2021/01/28 02:54:47;;;;;;;21.20;11.55;;;;;;;1.19;90.27;96070.47;5020897;28;20045;-72
2021/01/28 02:57:15;;;;;;;20.70;11.85;;;;;;;1.20;90.17;96064.34;5019894;28;20486;-72
2021/01/28 02:59:41;;;;;;;18.45;11.05;;;;;;;1.18;90.35;96066.31;5026262;28;20053;-72
2021/01/28 03:02:18;;;;;;;18.27;11.23;;;;;;;1.17;90.39;96059.50;5015362;28;20046;-72
2021/01/28 03:04:46;;;;;;;19.40;11.30;;;;;;;1.15;90.48;96056.28;5024812;28;20041;-72
2021/01/28 03:07:15;;;;;;;16.73;10.40;;;;;;;1.16;90.57;96045.81;5027792;28;20057;-72
2021/01/28 03:09:41;;;;;;;20.75;11.60;;;;;;;1.18;90.53;96043.06;5025777;28;20394;-72
2021/01/28 03:12:09;;;;;;;18.73;10.88;;;;;;;1.19;90.49;96039.50;5011937;28;20053;-72
2021/01/28 03:14:35;;;;;;;20.90;11.85;;;;;;;1.20;90.51;96038.53;5021490;28;20030;-73
2021/01/28 03:17:06;;;;;;;19.33;11.02;;;;;;;1.21;90.57;96029.78;5019065;28;20038;-73
2021/01/28 03:19:32;;;;;;;18.42;10.75;;;;;;;1.22;90.72;96026.25;5017971;28;20045;-72
2021/01/28 03:21:58;;;;;;;21.02;11.70;;;;;;;1.24;90.81;96013.16;5028187;28;20079;-72
2021/01/28 03:24:24;;;;;;;18.50;10.80;;;;;;;1.26;90.93;96012.03;5021693;28;20056;-72
2021/01/28 03:26:51;;;;;;;20.92;12.15;;;;;;;1.25;90.76;96012.19;5023926;28;20528;-72
2021/01/28 03:29:18;;;;;;;20.02;11.50;;;;;;;1.26;90.86;96011.19;5021567;28;20046;-72
2021/01/28 03:31:44;;;;;;;26.13;13.43;;;;;;;1.27;90.85;96010.25;5018930;28;20064;-72
2021/01/28 03:34:11;;;;;;;272.92;124.93;;;;;;;1.25;90.99;96002.66;5016555;28;20405;-72
2021/01/28 03:36:38;;;;;;;256.70;118.55;;;;;;;1.20;90.87;95992.84;5021275;28;20479;-72
2021/01/28 03:39:05;;;;;;;284.20;139.48;;;;;;;1.19;90.79;95993.78;5026444;28;20403;-73
2021/01/28 03:41:33;;;;;;;94.75;49.28;;;;;;;1.16;90.94;95980.44;5024664;28;20482;-73
2021/01/28 03:43:59;;;;;;;51.55;27.50;;;;;;;1.11;90.92;95975.75;5022169;28;20056;-73
2021/01/28 03:46:26;;;;;;;103.80;50.47;;;;;;;1.09;91.06;95972.56;5018749;28;20045;-73
2021/01/28 03:48:53;;;;;;;116.35;56.50;;;;;;;1.09;90.93;95967.41;5025011;28;20042;-73
2021/01/28 03:51:20;;;;;;;122.57;61.03;;;;;;;1.09;91.33;95961.41;5025176;28;20034;-73
2021/01/28 03:53:46;;;;;;;149.60;72.15;;;;;;;1.07;91.27;95953.03;5019724;28;20393;-73
2021/01/28 03:56:12;;;;;;;92.13;45.05;;;;;;;1.05;91.11;95950.66;5019033;28;20061;-73
2021/01/28 03:58:39;;;;;;;48.10;24.33;;;;;;;1.06;91.18;95946.28;5027026;28;20046;-72
2021/01/28 04:01:05;;;;;;;165.60;78.75;;;;;;;1.05;91.37;95942.91;5026998;28;20041;-73
2021/01/28 04:03:32;;;;;;;42.58;21.25;;;;;;;1.03;91.30;95934.53;5022867;28;20057;-72
2021/01/28 04:06:04;;;;;;;63.33;29.85;;;;;;;1.02;91.37;95935.47;5018710;28;20045;-72
2021/01/28 04:08:30;;;;;;;97.63;48.17;;;;;;;0.99;91.16;95918.56;5026091;28;20064;-73
2021/01/28 04:10:57;;;;;;;39.38;19.55;;;;;;;1.01;91.23;95913.22;5025712;28;20060;-72
2021/01/28 04:13:23;;;;;;;31.77;17.17;;;;;;;0.98;91.25;95901.44;5022476;28;20053;-72
2021/01/28 04:15:49;;;;;;;40.35;22.77;;;;;;;0.96;91.30;95898.22;5022991;28;20068;-73
2021/01/28 04:18:17;;;;;;;33.95;17.80;;;;;;;0.97;91.21;95888.72;5003169;28;20046;-73
2021/01/28 04:20:44;;;;;;;35.63;21.08;;;;;;;0.95;91.16;95878.56;5022027;28;20045;-72
2021/01/28 04:23:12;;;;;;;38.78;22.15;;;;;;;0.96;91.19;95876.78;5022432;28;20061;-72
2021/01/28 04:25:44;;;;;;;30.50;16.80;;;;;;;0.93;91.13;95872.78;5024991;28;20660;-72
2021/01/28 04:28:11;;;;;;;26.08;14.20;;;;;;;0.91;91.01;95874.72;5022162;28;20057;-72
2021/01/28 04:30:37;;;;;;;27.98;14.80;;;;;;;0.92;91.02;95867.78;5021766;28;20052;-72
2021/01/28 04:33:05;;;;;;;28.35;14.15;;;;;;;0.92;91.17;95872.94;5016438;28;20054;-72
2021/01/28 04:35:32;;;;;;;24.38;13.25;;;;;;;0.92;91.11;95866.00;5024877;28;20394;-74
2021/01/28 04:37:58;;;;;;;24.80;13.45;;;;;;;0.92;91.15;95868.56;5027183;28;20462;-73
2021/01/28 04:40:36;;;;;;;25.45;13.77;;;;;;;0.92;91.10;95858.25;5021307;28;20121;-73
2021/01/28 04:43:12;;;;;;;27.98;13.77;;;;;;;0.92;91.03;95845.34;5019283;28;20045;-72
2021/01/28 04:45:40;;;;;;;24.45;13.90;;;;;;;0.92;91.12;95852.28;5017835;28;20034;-72
2021/01/28 04:48:09;;;;;;;25.67;13.93;;;;;;;0.92;91.08;95842.75;5008026;28;20062;-73
2021/01/28 04:50:38;;;;;;;24.83;13.70;;;;;;;0.92;91.06;95840.16;5026045;28;20050;-73
2021/01/28 04:53:31;;;;;;;23.17;12.70;;;;;;;0.93;91.37;95843.56;5027458;28;20116;-73
2021/01/28 04:56:01;;;;;;;29.25;14.32;;;;;;;0.92;91.15;95837.59;5027351;28;20053;-73
2021/01/28 04:58:27;;;;;;;25.50;12.57;;;;;;;0.92;91.16;95841.97;5026864;28;20045;-73
2021/01/28 05:00:53;;;;;;;22.27;12.63;;;;;;;0.91;91.03;95833.41;5024498;28;20401;-73
2021/01/28 05:03:26;;;;;;;24.63;13.02;;;;;;;0.91;91.14;95833.41;5024053;28;20483;-73
2021/01/28 05:05:56;;;;;;;23.35;13.32;;;;;;;0.90;91.05;95807.75;5027019;28;20046;-72
2021/01/28 05:08:23;;;;;;;23.05;12.93;;;;;;;0.91;91.12;95797.28;5032032;28;20466;-72
2021/01/28 05:10:55;;;;;;;21.05;12.25;;;;;;;0.94;91.10;95796.13;5024071;28;20038;-72
2021/01/28 05:13:32;;;;;;;20.90;11.73;;;;;;;0.94;91.08;95789.16;5022418;28;20046;-72
2021/01/28 05:16:17;;;;;;;20.50;11.18;;;;;;;0.94;90.97;95781.44;5026990;28;20045;-72
2021/01/28 05:18:43;;;;;;;;;;;;;;;0.94;91.28;95778.06;5023678;28;20057;-72
2021/01/28 05:21:20;;;;;;;22.85;12.40;;;;;;;0.93;91.21;95774.69;5029060;28;19913;-73
2021/01/28 05:23:47;;;;;;;25.70;12.15;;;;;;;0.95;90.96;95777.09;5030158;28;20394;-73
2021/01/28 05:26:41;;;;;;;22.95;12.32;;;;;;;0.93;91.22;95768.72;5025470;28;20041;-72
2021/01/28 05:29:29;;;;;;;22.73;12.25;;;;;;;0.94;91.19;95770.31;5021189;28;20037;-73
2021/01/28 05:31:58;;;;;;;23.67;12.48;;;;;;;0.94;91.20;95762.56;5026141;28;20482;-72
2021/01/28 05:34:27;;;;;;;23.95;13.00;;;;;;;0.92;91.24;95760.16;5029409;28;20037;-72
2021/01/28 05:36:58;;;;;;;22.73;13.35;;;;;;;0.90;91.44;95749.19;5020343;28;20046;-72
2021/01/28 05:39:29;;;;;;;22.10;12.13;;;;;;;0.90;91.56;95748.41;5022902;28;20042;-72
2021/01/28 05:42:14;;;;;;;25.52;13.88;;;;;;;0.91;91.69;95748.22;5023858;28;20065;-73
2021/01/28 05:44:41;;;;;;;29.15;14.60;;;;;;;0.91;91.67;95742.28;5003542;28;20045;-73
2021/01/28 05:47:13;;;;;;;26.40;13.82;;;;;;;0.90;92.23;95731.13;5023538;28;20106;-73
2021/01/28 05:49:42;;;;;;;24.17;12.23;;;;;;;0.90;92.13;95725.97;5027748;28;20038;-72
2021/01/28 05:52:14;;;;;;;23.70;12.13;;;;;;;0.91;92.53;95730.16;5026118;28;20048;-72
2021/01/28 05:54:41;;;;;;;20.30;11.68;;;;;;;0.92;92.57;95725.78;5024379;28;20049;-72
2021/01/28 05:57:28;;;;;;;25.38;12.57;;;;;;;0.93;92.85;95722.25;5025016;28;20049;-72
2021/01/28 06:00:09;;;;;;;25.05;12.80;;;;;;;0.93;92.85;95719.66;5025815;28;20041;-72
2021/01/28 06:03:00;;;;;;;25.17;12.35;;;;;;;0.92;92.95;95715.47;5029774;28;20048;-72
2021/01/28 06:05:56;;;;;;;25.05;13.38;;;;;;;0.91;93.04;95706.13;5018934;28;20053;-72
2021/01/28 06:08:50;;;;;;;26.58;13.55;;;;;;;0.90;93.63;95704.50;5030846;28;20596;-71
2021/01/28 06:11:45;;;;;;;25.85;12.98;;;;;;;0.91;93.54;95703.56;5021547;28;20026;-72
2021/01/28 06:14:20;;;;;;;26.55;13.40;;;;;;;0.94;93.10;95698.81;5010184;28;20037;-72
2021/01/28 06:17:08;;;;;;;25.73;13.05;;;;;;;0.94;93.81;95691.06;5024437;28;20068;-72
2021/01/28 06:20:20;;;;;;;21.17;11.57;;;;;;;0.93;94.24;95679.16;5025944;28;20033;-72
2021/01/28 06:23:19;;;;;;;23.58;12.48;;;;;;;0.92;94.04;95677.53;5022580;28;20047;-73
2021/01/28 06:25:56;;;;;;;23.30;12.35;;;;;;;0.96;94.36;95676.22;5023174;28;20053;-72
2021/01/28 06:28:47;;;;;;;25.23;11.70;;;;;;;0.97;94.37;95674.47;5027921;28;20042;-73
2021/01/28 06:31:44;;;;;;;23.20;12.02;;;;;;;0.97;94.89;95664.13;5030456;28;20049;-72
2021/01/28 06:34:26;;;;;;;29.63;13.35;;;;;;;0.95;94.98;95650.59;5024482;28;20482;-73
2021/01/28 06:36:56;;;;;;;25.63;13.38;;;;;;;0.95;94.67;95642.84;5022844;28;20045;-74
2021/01/28 06:39:27;;;;;;;31.27;14.05;;;;;;;0.95;94.66;95641.06;5024346;28;20053;-73
2021/01/28 06:42:17;;;;;;;25.45;12.88;;;;;;;0.99;95.27;95633.78;5024958;28;20037;-73
2021/01/28 06:45:07;;;;;;;24.10;11.98;;;;;;;1.01;95.29;95639.56;5012511;28;20060;-72
2021/01/28 06:47:40;;;;;;;23.42;12.43;;;;;;;1.02;95.03;95630.81;5022256;28;20048;-73
2021/01/28 06:50:09;;;;;;;27.55;12.95;;;;;;;1.04;94.74;95626.28;5019590;28;20068;-73
2021/01/28 06:52:58;;;;;;;30.23;14.25;;;;;;;1.04;95.03;95630.66;5025756;28;20053;-73
2021/01/28 06:55:41;;;;;;;30.00;12.93;;;;;;;1.05;94.55;95616.75;5024191;28;20407;-73
2021/01/28 06:58:35;;;;;;;26.67;13.35;;;;;;;1.06;95.05;95623.53;5025532;28;20045;-73
2021/01/28 07:01:25;;;;;;;30.90;14.57;;;;;;;1.06;94.79;95620.94;5025480;28;20030;-73
2021/01/28 07:04:03;;;;;;;31.45;13.65;;;;;;;1.06;94.55;95615.78;5003700;28;20037;-73
2021/01/28 07:06:56;;;;;;;36.97;14.82;;;;;;;1.06;94.86;95624.31;5024202;28;20049;-73
2021/01/28 07:09:43;;;;;;;26.30;12.80;;;;;;;1.05;95.13;95620.16;5003098;28;20041;-73
2021/01/28 07:12:16;;;;;;;31.00;13.82;;;;;;;1.05;95.49;95619.34;5023141;28;20505;-73
2021/01/28 07:14:47;;;;;;;27.90;12.75;;;;;;;1.05;95.28;95616.75;5028605;28;20471;-72
2021/01/28 07:17:20;;;;;;;25.55;13.38;;;;;;;1.04;95.54;95595.31;5025294;28;20065;-72
2021/01/28 07:20:00;;;;;;;31.90;13.05;;;;;;;1.06;95.69;95610.63;5019133;28;20057;-73
2021/01/28 07:22:39;;;;;;;23.33;12.52;;;;;;;1.07;95.63;95607.03;5022821;28;20053;-73
2021/01/28 07:25:29;;;;;;;25.60;13.07;;;;;;;1.11;95.88;95603.13;5018113;28;20049;-73
2021/01/28 07:28:23;;;;;;;26.55;12.57;;;;;;;1.10;95.83;95592.00;5002265;28;20058;-72
2021/01/28 07:30:54;;;;;;;29.40;12.65;;;;;;;1.09;95.89;95587.84;5020724;28;20054;-73
2021/01/28 07:33:29;;;;;;;29.27;13.25;;;;;;;1.10;95.64;95584.25;5024626;28;20053;-72
2021/01/28 07:36:03;;;;;;;28.17;12.55;;;;;;;1.12;95.67;95578.94;5024267;28;20046;-73
2021/01/28 07:38:30;;;;;;;29.30;13.48;;;;;;;1.13;95.67;95576.16;5027605;28;20045;-73
2021/01/28 07:41:07;;;;;;;22.33;11.50;;;;;;;1.16;95.68;95573.22;5022414;28;20049;-73
2021/01/28 07:43:42;;;;;;;25.60;12.57;;;;;;;1.18;95.45;95566.09;5019829;28;20064;-73
2021/01/28 07:46:27;;;;;;;23.80;11.30;;;;;;;1.20;95.79;95551.22;5027352;28;20394;-74
2021/01/28 07:49:29;;;;;;;25.27;11.68;;;;;;;1.23;95.67;95555.22;5026782;28;20053;-73
2021/01/28 07:52:01;;;;;;;22.27;11.02;;;;;;;1.25;95.15;95537.75;5025497;28;20050;-73
2021/01/28 07:54:28;;;;;;;25.77;11.73;;;;;;;1.30;95.13;95538.03;5020022;28;20043;-73
2021/01/28 07:57:29;;;;;;;22.85;13.43;;;;;;;1.32;95.37;95528.28;5022374;28;20045;-73
2021/01/28 08:00:04;;;;;;;30.42;16.05;;;;;;;1.36;95.28;95532.09;5024301;28;20378;-73
2021/01/28 08:02:38;;;;;;;24.58;13.80;;;;;;;1.36;95.51;95533.91;5024638;28;20470;-73
2021/01/28 08:05:21;;;;;;;30.63;16.63;;;;;;;1.32;95.44;95515.38;5021690;28;20045;-73
2021/01/28 08:08:07;;;;;;;27.80;11.98;;;;;;;1.32;95.84;95517.16;5012575;28;20041;-73
2021/01/28 08:10:41;;;;;;;27.13;13.75;;;;;;;1.31;95.87;95513.78;5022840;28;20470;-74
2021/01/28 08:13:25;;;;;;;25.73;12.63;;;;;;;1.34;95.74;95515.19;5016831;28;20481;-73
2021/01/28 08:16:06;;;;;;;29.83;14.45;;;;;;;1.32;96.31;95505.03;5021893;28;20054;-73
2021/01/28 08:18:40;;;;;;;27.48;13.82;;;;;;;1.31;96.26;95503.47;5025837;28;20049;-73
2021/01/28 08:21:20;;;;;;;24.98;12.82;;;;;;;1.33;96.37;95503.28;5024824;28;20493;-73
2021/01/28 08:23:56;;;;;;;40.25;19.15;;;;;;;1.35;96.44;95493.56;5028946;28;20054;-73
2021/01/28 08:26:34;;;;;;;29.70;14.40;;;;;;;1.37;96.10;95481.25;5025178;28;20045;-73
2021/01/28 08:29:07;;;;;;;62.65;31.77;;;;;;;1.39;96.01;95468.97;5027565;28;20049;-74
2021/01/28 08:31:46;;;;;;;117.17;55.60;;;;;;;1.42;96.25;95464.22;5024715;28;20042;-73
2021/01/28 08:34:17;;;;;;;74.07;37.88;;;;;;;1.45;96.19;95457.91;5032569;28;20048;-73
2021/01/28 08:36:46;;;;;;;57.90;33.15;;;;;;;1.46;96.36;95450.94;5022112;28;20037;-73
2021/01/28 08:39:25;;;;;;;81.93;40.55;;;;;;;1.47;96.72;95445.59;5025515;28;20393;-73
2021/01/28 08:42:11;;;;;;;36.15;17.30;;;;;;;1.50;97.54;95452.16;5025441;28;20346;-73
2021/01/28 08:44:41;;;;;;;181.18;80.55;;;;;;;1.49;97.41;95438.47;5022183;28;20029;-73
2021/01/28 08:47:18;;;;;;;24.05;12.95;;;;;;;1.51;97.52;95438.25;5027464;28;20049;-73
2021/01/28 08:50:13;;;;;;;21.70;10.35;;;;;;;1.50;98.15;95432.28;5027950;28;20030;-73
2021/01/28 08:52:42;;;;;;;30.95;14.50;;;;;;;1.49;98.28;95420.38;5012171;28;20041;-73
2021/01/28 08:55:20;;;;;;;24.90;11.40;;;;;;;1.50;98.40;95424.53;5027166;28;20045;-73
2021/01/28 08:57:48;;;;;;;23.90;10.80;;;;;;;1.52;98.17;95421.78;5022102;28;20411;-73
2021/01/28 09:00:21;;;;;;;20.42;10.95;;;;;;;1.54;98.34;95424.97;5030675;28;20048;-72
2021/01/28 09:02:53;;;;;;;21.30;11.48;;;;;;;1.58;98.41;95423.63;5029738;28;20040;-73
2021/01/28 09:05:27;;;;;;;17.42;9.88;;;;;;;1.60;98.36;95412.09;5026686;28;20482;-73
2021/01/28 09:08:03;;;;;;;16.90;10.00;;;;;;;1.66;98.07;95410.56;5019818;28;20038;-73
2021/01/28 09:10:43;;;;;;;20.88;9.52;;;;;;;1.68;98.83;95405.19;5028640;28;20038;-73
2021/01/28 09:13:18;;;;;;;17.70;9.35;;;;;;;1.69;98.85;95402.44;5025784;28;20057;-73
2021/01/28 09:16:07;;;;;;;21.53;9.77;;;;;;;1.73;98.57;95400.28;5029301;28;20474;-73
2021/01/28 09:18:46;;;;;;;13.90;7.25;;;;;;;2.24;100.00;95399.97;5018226;28;20438;-73
2021/01/28 09:21:26;;;;;;;12.50;7.07;;;;;;;2.32;99.68;95381.72;5022524;28;20274;-73
2021/01/28 09:23:56;;;;;;;14.02;7.47;;;;;;;2.30;97.34;95385.50;5022856;28;20042;-73
2021/01/28 09:26:27;;;;;;;12.27;7.05;;;;;;;2.27;97.03;95380.69;5008425;28;20057;-74
2021/01/28 09:28:54;;;;;;;11.18;6.10;;;;;;;2.27;96.77;95375.50;5025511;28;20053;-73
2021/01/28 09:31:30;;;;;;;13.18;5.97;;;;;;;2.28;96.56;95374.53;5036714;28;20489;-73
2021/01/28 09:34:15;;;;;;;11.25;5.82;;;;;;;2.31;96.58;95376.72;5026752;28;20501;-73
2021/01/28 09:36:57;;;;;;;7.07;4.65;;;;;;;2.30;97.00;95368.19;5028759;28;20049;-73
2021/01/28 09:39:35;;;;;;;10.23;5.93;;;;;;;2.30;96.96;95354.44;5014286;28;20033;-73
2021/01/28 09:42:33;;;;;;;7.45;5.13;;;;;;;2.35;96.85;95363.25;5025530;28;20045;-73
2021/01/28 09:45:17;;;;;;;9.27;5.10;;;;;;;2.36;96.94;95367.41;5019915;28;20505;-73
2021/01/28 09:47:51;;;;;;;;;;;;;;;2.33;97.92;95359.22;5027825;28;20040;-73
2021/01/28 09:50:17;;;;;;;9.20;5.68;;;;;;;2.30;97.33;95359.63;5028526;28;20015;-73
2021/01/28 09:52:47;;;;;;;11.23;7.63;;;;;;;2.27;97.54;95363.41;5029671;28;20037;-73
2021/01/28 09:55:22;;;;;;;10.30;5.68;;;;;;;2.26;97.34;95354.03;5008356;28;20417;-72
2021/01/28 09:57:50;;;;;;;12.80;6.13;;;;;;;2.27;97.25;95352.22;5025883;28;20045;-73
2021/01/28 10:00:22;;;;;;;11.95;6.75;;;;;;;2.30;97.39;95359.63;5029468;28;20045;-73
2021/01/28 10:03:02;;;;;;;13.88;9.32;;;;;;;2.30;97.54;95362.22;5029139;28;20057;-72
2021/01/28 10:05:36;;;;;;;13.20;8.05;;;;;;;2.28;97.93;95359.00;5016208;28;20049;-73
2021/01/28 10:08:06;;;;;;;16.98;6.68;;;;;;;2.28;98.06;95359.81;5019479;28;20520;-73
2021/01/28 10:10:39;;;;;;;10.90;6.50;;;;;;;2.30;98.77;95359.63;5028386;28;20049;-72
2021/01/28 10:13:14;;;;;;;12.45;7.22;;;;;;;2.31;98.59;95358.63;5025549;28;20046;-71
2021/01/28 10:15:41;;;;;;;13.23;6.82;;;;;;;2.34;98.73;95366.00;5024607;28;20478;-72
2021/01/28 10:18:09;;;;;;;12.80;9.10;;;;;;;2.39;98.58;95366.22;5023405;28;20041;-72
2021/01/28 10:20:36;;;;;;;12.65;7.97;;;;;;;2.42;98.49;95358.88;5025432;28;20079;-72
2021/01/28 10:23:04;;;;;;;8.85;5.72;;;;;;;2.44;98.24;95362.06;5019817;28;20049;-72
2021/01/28 10:25:33;;;;;;;11.30;5.45;;;;;;;2.46;98.30;95363.66;5022608;28;20072;-72
2021/01/28 10:28:00;;;;;;;8.15;4.65;;;;;;;2.48;98.33;95366.84;5024905;28;20057;-72
2021/01/28 10:30:27;;;;;;;11.45;6.18;;;;;;;2.50;98.35;95367.44;5027933;28;20042;-72
2021/01/28 10:32:56;;;;;;;7.88;5.28;;;;;;;2.51;98.34;95369.84;5018902;28;20038;-72
2021/01/28 10:35:29;;;;;;;13.93;5.38;;;;;;;2.53;98.62;95356.72;5024536;28;20397;-72
2021/01/28 10:38:01;;;;;;;8.77;4.95;;;;;;;2.56;98.58;95362.31;5023280;28;20042;-72
2021/01/28 10:40:32;;;;;;;5.10;4.05;;;;;;;2.59;98.96;95355.94;5023488;28;20046;-72
2021/01/28 10:43:10;;;;;;;8.52;4.15;;;;;;;2.64;99.19;95348.38;5026190;28;20471;-72
2021/01/28 10:45:40;;;;;;;6.50;4.40;;;;;;;2.67;99.13;95350.59;5022818;28;20493;-72
2021/01/28 10:48:08;;;;;;;5.38;4.00;;;;;;;2.69;99.42;95337.44;5022993;28;20052;-73
2021/01/28 10:50:36;;;;;;;7.60;4.95;;;;;;;2.71;99.26;95343.22;5020105;28;20406;-72
2021/01/28 10:53:04;;;;;;;10.63;4.93;;;;;;;2.76;99.27;95341.66;5023909;28;20042;-72
2021/01/28 10:55:32;;;;;;;7.60;5.13;;;;;;;2.82;99.44;95340.06;5023493;28;20455;-72
2021/01/28 10:57:59;;;;;;;8.65;6.05;;;;;;;2.88;99.47;95331.53;5023119;28;20052;-72
2021/01/28 11:00:26;;;;;;;6.47;4.07;;;;;;;2.93;99.61;95315.41;5020022;28;20459;-72
2021/01/28 11:02:55;;;;;;;4.82;4.10;;;;;;;3.01;99.00;95328.94;5027900;28;20046;-72
2021/01/28 11:05:26;;;;;;;7.40;4.00;;;;;;;3.09;99.14;95332.31;5026002;28;20049;-72
2021/01/28 11:07:53;;;;;;;8.35;4.88;;;;;;;3.14;99.27;95312.63;5022985;28;20029;-72
2021/01/28 11:10:23;;;;;;;6.03;5.28;;;;;;;3.25;99.09;95309.44;5022317;28;20064;-73
2021/01/28 11:12:52;;;;;;;6.68;5.07;;;;;;;3.35;99.08;95297.88;5023779;28;20053;-72
2021/01/28 11:15:20;;;;;;;6.65;4.53;;;;;;;3.39;98.32;95292.06;5028050;28;20389;-72
2021/01/28 11:17:47;;;;;;;6.43;4.53;;;;;;;3.41;98.39;95289.28;5023335;28;20056;-72
2021/01/28 11:20:14;;;;;;;7.50;4.25;;;;;;;3.44;98.11;95294.06;5021322;28;20064;-72
2021/01/28 11:22:53;;;;;;;5.30;4.03;;;;;;;3.44;97.76;95284.50;5021784;28;20042;-72
2021/01/28 11:25:23;;;;;;;6.13;4.18;;;;;;;3.42;97.58;95273.56;5019382;28;20532;-73
2021/01/28 11:27:49;;;;;;;5.68;4.40;;;;;;;3.35;97.59;95259.78;5016677;28;20053;-72
2021/01/28 11:30:22;;;;;;;8.32;4.32;;;;;;;3.28;98.14;95253.03;5022509;28;20052;-72
2021/01/28 11:32:49;;;;;;;6.82;4.65;;;;;;;3.25;98.28;95255.03;5022198;28;20050;-72
2021/01/28 11:35:20;;;;;;;7.47;5.13;;;;;;;3.42;99.53;95255.41;5024208;28;20053;-72
2021/01/28 11:37:47;;;;;;;7.22;5.13;;;;;;;3.58;99.50;95253.38;5023395;28;20421;-72
2021/01/28 11:40:21;;;;;;;5.93;4.85;;;;;;;3.67;99.49;95241.78;5022424;28;20474;-72
2021/01/28 11:42:48;;;;;;;5.30;4.05;;;;;;;3.80;99.68;95246.94;5023465;28;20050;-73
2021/01/28 11:45:28;;;;;;;6.10;4.07;;;;;;;3.92;100.00;95249.66;5007966;28;20053;-73
2021/01/28 11:47:55;;;;;;;6.32;4.68;;;;;;;4.01;99.64;95251.06;5019763;28;20045;-71
2021/01/28 11:50:22;;;;;;;7.22;4.22;;;;;;;4.06;99.01;95253.03;5035923;28;20045;-71
2021/01/28 11:52:54;;;;;;;6.47;5.25;;;;;;;4.11;98.87;95255.00;5027670;28;20371;-72
2021/01/28 11:55:24;;;;;;;4.30;3.90;;;;;;;4.12;98.88;95238.44;5025158;28;20045;-71
2021/01/28 11:57:50;;;;;;;9.65;5.10;;;;;;;4.19;99.60;95236.59;5020305;28;20056;-71